Time;durP1;ratioP1;P1;durP2;ratioP2;P2;SDS_P1;SDS_P2;PMS_P1;PMS_P2;Temp;Humidity;BMP_temperature;BMP_pressure;BME280_temperature;BME280_humidity;BME280_pressure;Samples;Min_cycle;Max_cycle;Signal;HPM_P1;HPM_P2
2022/10/10 00:04:20;;;;;;;25.48;13.00;;;;;;;7.28;91.95;101470.12;3786875;76;98793;-85
2022/10/10 00:09:21;;;;;;;30.27;13.83;;;;;;;7.27;91.80;101466.33;3782275;76;26735;-84
2022/10/10 00:14:22;;;;;;;70.60;30.80;;;;;;;7.25;91.96;101459.03;3780127;76;98553;-84
2022/10/10 00:19:23;;;;;;;59.03;25.17;;;;;;;7.23;91.95;101458.53;3794467;76;34811;-84
2022/10/10 00:24:24;;;;;;;31.75;15.18;;;;;;;7.18;92.00;101449.95;3791842;76;98409;-84
2022/10/10 00:29:24;;;;;;;28.97;14.33;;;;;;;7.14;91.91;101444.88;3806290;76;35935;-84
2022/10/10 00:34:25;;;;;;;37.73;18.33;;;;;;;7.11;92.18;101441.45;3786524;76;98611;-84
2022/10/10 00:39:26;;;;;;;30.13;15.47;;;;;;;7.09;92.30;101439.59;3795092;76;36051;-83
2022/10/10 00:44:27;;;;;;;53.13;23.47;;;;;;;7.06;92.41;101433.42;3796697;76;98936;-84
2022/10/10 00:49:30;;;;;;;44.73;21.77;;;;;;;7.03;92.51;101425.86;3793724;76;35415;-84
2022/10/10 00:54:32;;;;;;;34.43;17.62;;;;;;;7.02;92.50;101431.10;3789432;76;99227;-84
2022/10/10 00:59:36;;;;;;;28.60;16.23;;;;;;;6.99;92.63;101429.59;3789366;76;34884;-84
2022/10/10 01:04:41;;;;;;;42.50;20.50;;;;;;;6.98;92.66;101426.04;3781579;76;98702;-84
2022/10/10 01:09:44;;;;;;;40.48;21.27;;;;;;;6.97;92.90;101416.78;3795191;77;34847;-84
2022/10/10 01:14:59;;;;;;;31.70;17.75;;;;;;;6.95;92.77;101416.31;3780728;76;98547;-84
2022/10/10 01:20:32;;;;;;;31.90;16.62;;;;;;;6.92;92.95;101408.78;3786856;76;34788;-84
2022/10/10 01:26:03;;;;;;;40.35;19.73;;;;;;;6.89;93.10;101414.90;3793096;76;99141;-85
2022/10/10 01:31:08;;;;;;;35.20;16.80;;;;;;;6.87;93.21;101417.17;3792980;76;34790;-84
2022/10/10 01:36:23;;;;;;;28.45;16.20;;;;;;;6.84;93.26;101409.05;3789576;77;98549;-84
2022/10/10 01:41:36;;;;;;;28.73;16.50;;;;;;;6.80;93.28;101399.89;3799887;77;35394;-84
2022/10/10 01:46:36;;;;;;;36.15;17.75;;;;;;;6.77;93.08;101395.64;3788120;76;98462;-84
2022/10/10 01:52:08;;;;;;;32.80;18.53;;;;;;;6.71;93.20;101386.02;3798853;76;26269;-84
2022/10/10 01:57:23;;;;;;;32.25;18.12;;;;;;;6.66;93.24;101376.03;3775944;76;98514;-85
2022/10/10 02:02:50;;;;;;;33.20;18.42;;;;;;;6.58;93.19;101376.88;3806181;76;35313;-84
2022/10/10 02:08:08;;;;;;;34.75;18.15;;;;;;;6.54;93.41;101366.94;3786596;76;98416;-84
2022/10/10 02:13:12;;;;;;;34.80;17.52;;;;;;;6.48;93.32;101363.56;3799164;76;34901;-84
2022/10/10 02:18:15;;;;;;;33.05;18.75;;;;;;;6.40;93.49;101364.95;3786708;76;98717;-84
2022/10/10 02:23:20;;;;;;;30.30;16.48;;;;;;;6.40;93.77;101365.77;3765760;77;34777;-84
2022/10/10 02:28:32;;;;;;;30.27;16.97;;;;;;;6.36;93.81;101355.79;3762948;77;98419;-84
2022/10/10 02:33:44;;;;;;;36.00;17.90;;;;;;;6.36;94.11;101352.50;3796661;76;36030;-84
2022/10/10 02:38:47;;;;;;;31.27;17.60;;;;;;;6.36;93.75;101346.22;3833446;76;35338;-84
2022/10/10 02:43:49;;;;;;;29.85;16.80;;;;;;;6.28;93.99;101338.86;3814636;75;98536;-83
2022/10/10 02:48:50;;;;;;;29.72;16.57;;;;;;;6.21;94.07;101329.79;3832489;75;34804;-84
2022/10/10 02:53:51;;;;;;;29.20;15.87;;;;;;;6.21;94.55;101324.91;3857788;75;98535;-83
2022/10/10 02:58:53;;;;;;;29.60;17.03;;;;;;;6.21;94.44;101324.32;3849721;75;33780;-83
2022/10/10 03:03:53;;;;;;;33.80;17.30;;;;;;;6.21;94.39;101322.17;3835691;75;98652;-83
2022/10/10 03:08:54;;;;;;;33.17;17.20;;;;;;;6.21;94.67;101322.17;3866835;75;33056;-83
2022/10/10 03:13:55;;;;;;;31.57;16.27;;;;;;;6.15;94.44;101313.88;3849865;75;98560;-83
2022/10/10 03:18:56;;;;;;;30.30;16.77;;;;;;;6.10;94.59;101312.13;3844169;75;32448;-83
2022/10/10 03:23:57;;;;;;;27.27;15.97;;;;;;;6.07;94.60;101297.77;3858291;75;98417;-83
2022/10/10 03:28:58;;;;;;;26.20;15.07;;;;;;;6.05;94.69;101287.71;3874093;75;32458;-83
2022/10/10 03:33:59;;;;;;;37.63;17.80;;;;;;;6.03;94.82;101284.52;3851647;75;98847;-84
2022/10/10 03:39:00;;;;;;;29.90;16.05;;;;;;;6.04;94.95;101276.55;3843342;75;32880;-84
2022/10/10 03:44:00;;;;;;;28.77;16.43;;;;;;;6.00;94.92;101278.90;3857984;75;98500;-83
2022/10/10 03:49:02;;;;;;;29.07;17.00;;;;;;;5.98;94.91;101269.66;3844287;75;26705;-83
2022/10/10 03:54:03;;;;;;;28.87;16.90;;;;;;;5.96;95.04;101268.38;3877426;75;98807;-84
2022/10/10 03:59:05;;;;;;;29.43;17.50;;;;;;;5.96;95.21;101259.63;3859278;75;26228;-85
2022/10/10 04:04:06;;;;;;;34.38;18.70;;;;;;;5.92;95.25;101257.30;3862396;75;98521;-84
2022/10/10 04:09:07;;;;;;;34.87;17.73;;;;;;;5.91;95.34;101257.63;3853413;75;25798;-84
2022/10/10 04:14:07;;;;;;;33.40;17.57;;;;;;;5.92;95.38;101258.66;3862934;75;98620;-84
2022/10/10 04:19:08;;;;;;;30.97;15.50;;;;;;;5.92;95.29;101256.48;3867481;74;25984;-84
2022/10/10 04:24:09;;;;;;;33.67;16.10;;;;;;;5.92;95.37;101260.03;3865809;75;98661;-85
2022/10/10 04:29:10;;;;;;;28.23;15.23;;;;;;;5.88;95.31;101258.26;3862513;75;26143;-84
2022/10/10 04:34:11;;;;;;;31.90;16.25;;;;;;;5.83;95.47;101255.14;3861647;75;98470;-83
2022/10/10 04:39:12;;;;;;;29.20;15.73;;;;;;;5.80;95.54;101242.70;3865544;75;33350;-83
2022/10/10 04:44:12;;;;;;;32.73;16.03;;;;;;;5.79;95.57;101234.25;3842185;75;98461;-84
2022/10/10 04:49:14;;;;;;;30.27;14.60;;;;;;;5.76;95.71;101234.88;3875947;75;25788;-84
2022/10/10 04:54:14;;;;;;;24.27;14.70;;;;;;;5.75;95.84;101224.54;3881230;74;98387;-83
2022/10/10 04:59:15;;;;;;;27.07;13.70;;;;;;;5.75;95.79;101219.63;3884275;75;32912;-83
2022/10/10 05:04:16;;;;;;;25.50;14.50;;;;;;;5.73;96.04;101214.48;3867563;75;98860;-83
2022/10/10 05:09:17;;;;;;;27.07;15.80;;;;;;;5.71;95.97;101206.37;3875688;74;32885;-83
2022/10/10 05:14:18;;;;;;;27.56;14.04;;;;;;;5.70;96.11;101202.86;3860792;75;98658;-83
2022/10/10 05:19:18;;;;;;;29.13;14.93;;;;;;;5.68;96.18;101198.27;3866614;75;31586;-82
2022/10/10 05:24:19;;;;;;;27.70;14.93;;;;;;;5.66;96.51;101182.78;3849947;74;98689;-82
2022/10/10 05:29:20;;;;;;;25.93;14.53;;;;;;;5.65;96.90;101180.38;3880152;75;31595;-83
2022/10/10 05:34:21;;;;;;;28.13;14.53;;;;;;;5.63;96.86;101184.79;3875381;75;98501;-82
2022/10/10 05:39:22;;;;;;;27.97;16.43;;;;;;;5.61;96.97;101173.95;3866663;75;31613;-83
2022/10/10 05:44:23;;;;;;;32.50;15.67;;;;;;;5.66;97.12;101184.16;3853878;75;98613;-83
2022/10/10 05:49:24;;;;;;;25.90;13.43;;;;;;;5.69;97.34;101171.78;3790878;76;31659;-83
2022/10/10 05:54:24;;;;;;;31.00;16.40;;;;;;;5.71;97.46;101164.86;3767922;76;98838;-83
2022/10/10 05:59:28;;;;;;;28.00;15.30;;;;;;;5.76;97.77;101157.05;3829993;76;30221;-83
2022/10/10 06:04:29;;;;;;;27.65;15.08;;;;;;;5.79;97.95;101150.36;3808968;76;98442;-83
2022/10/10 06:09:30;;;;;;;27.57;14.70;;;;;;;5.87;97.97;101149.56;3836476;76;26399;-82
2022/10/10 06:14:31;;;;;;;30.50;14.07;;;;;;;5.98;98.24;101148.63;3821977;76;98455;-83
2022/10/10 06:19:32;;;;;;;24.50;14.07;;;;;;;6.05;98.27;101155.77;3805187;76;34855;-83
2022/10/10 06:24:33;;;;;;;24.47;12.77;;;;;;;6.14;98.56;101143.65;3787295;76;98779;-83
2022/10/10 06:29:34;;;;;;;21.70;12.67;;;;;;;6.26;98.12;101143.73;3806926;76;35914;-83
2022/10/10 06:34:34;;;;;;;27.10;13.63;;;;;;;6.38;97.84;101141.67;3784818;76;98784;-84
2022/10/10 06:39:35;;;;;;;22.97;13.13;;;;;;;6.50;97.90;101135.69;3759865;75;34955;-84
2022/10/10 06:44:38;;;;;;;24.04;12.70;;;;;;;6.64;97.70;101126.66;3758002;77;98724;-83
2022/10/10 06:49:39;;;;;;;23.97;12.60;;;;;;;6.78;97.36;101129.13;3737105;76;33735;-85
2022/10/10 06:54:40;;;;;;;24.63;12.67;;;;;;;6.93;97.17;101124.42;3739248;77;98658;-82
2022/10/10 06:59:40;;;;;;;24.83;12.10;;;;;;;7.04;96.80;101122.28;3748795;77;28663;-84
2022/10/10 07:04:41;;;;;;;25.07;12.03;;;;;;;7.15;96.38;101126.20;3762803;77;98858;-84
2022/10/10 07:09:42;;;;;;;24.10;11.77;;;;;;;7.28;95.97;101115.54;3747298;77;32872;-84
2022/10/10 07:14:43;;;;;;;23.50;12.07;;;;;;;7.38;95.98;101107.45;3728297;77;98927;-84
2022/10/10 07:19:43;;;;;;;22.33;12.40;;;;;;;7.55;95.44;101101.78;3681194;78;32783;-83
2022/10/10 07:24:44;;;;;;;23.02;11.45;;;;;;;7.66;95.14;101101.00;3671243;78;98741;-83
2022/10/10 07:29:45;;;;;;;23.53;11.87;;;;;;;7.81;94.75;101100.90;3705232;78;28161;-84
2022/10/10 07:34:46;;;;;;;21.67;11.57;;;;;;;7.94;94.41;101099.19;3707046;78;98846;-83
2022/10/10 07:39:46;;;;;;;20.20;11.43;;;;;;;8.10;94.09;101093.23;3772040;77;26397;-85
2022/10/10 07:44:47;;;;;;;20.47;11.37;;;;;;;8.27;93.50;101095.77;3767268;76;98455;-84
2022/10/10 07:49:49;;;;;;;20.60;10.93;;;;;;;8.40;93.34;101086.95;3759990;77;25880;-85
2022/10/10 07:54:50;;;;;;;19.90;11.37;;;;;;;8.52;92.92;101075.94;3754280;77;98706;-85
2022/10/10 07:59:51;;;;;;;20.23;10.50;;;;;;;8.75;92.63;101089.34;3776532;77;26124;-85
2022/10/10 08:04:51;;;;;;;23.43;11.23;;;;;;;8.92;92.39;101069.83;3748163;77;98546;-85
2022/10/10 08:09:52;;;;;;;19.42;11.63;;;;;;;9.11;92.12;101069.38;3775524;77;26631;-85
2022/10/10 08:14:53;;;;;;;22.87;11.43;;;;;;;9.35;91.89;101058.84;3770475;77;98680;-86
2022/10/10 08:19:54;;;;;;;20.37;11.20;;;;;;;9.60;91.03;101067.92;3775503;76;32947;-85
2022/10/10 08:24:55;;;;;;;21.17;12.00;;;;;;;9.88;90.62;101065.86;3772575;76;98907;-86
2022/10/10 08:29:55;;;;;;;24.20;11.77;;;;;;;10.19;90.18;101062.31;3800433;76;32987;-86
2022/10/10 08:34:56;;;;;;;20.47;12.23;;;;;;;10.50;89.53;101041.56;3784005;77;99179;-86
2022/10/10 08:39:57;;;;;;;21.60;12.13;;;;;;;10.89;88.42;101039.81;3785995;76;32894;-87
2022/10/10 08:45:03;;;;;;;17.97;11.90;;;;;;;11.24;88.00;101032.20;3775732;76;98896;-85
2022/10/10 08:50:16;;;;;;;19.25;11.55;;;;;;;11.72;88.27;101034.84;3786011;76;26253;-87
2022/10/10 08:55:33;;;;;;;19.27;11.00;;;;;;;12.90;86.08;101029.34;3791821;76;99163;-87
2022/10/10 09:00:38;;;;;;;20.90;11.25;;;;;;;12.90;86.08;101029.34;3793385;76;26378;-87
2022/10/10 09:05:45;;;;;;;24.33;12.90;;;;;;;13.65;85.04;101026.38;3803391;76;99114;-85
2022/10/10 09:10:54;;;;;;;19.50;10.70;;;;;;;14.34;82.85;101027.27;3806852;76;26508;-85
2022/10/10 09:16:03;;;;;;;25.65;11.28;;;;;;;14.97;80.14;101016.42;3794962;76;99090;-86
2022/10/10 09:21:20;;;;;;;20.97;11.25;;;;;;;15.43;78.67;101012.56;3795375;76;26107;-86
2022/10/10 09:26:25;;;;;;;22.07;10.63;;;;;;;16.19;78.08;101008.75;3788403;76;99024;-87
2022/10/10 09:31:32;;;;;;;17.50;10.27;;;;;;;16.65;75.47;101008.81;3774283;77;25930;-88
2022/10/10 09:36:36;;;;;;;17.65;10.18;;;;;;;16.77;72.89;100999.21;3690541;78;98920;-87
2022/10/10 09:41:59;;;;;;;16.62;9.93;;;;;;;17.32;73.01;100990.33;3691114;78;25832;-86
2022/10/10 09:47:00;;;;;;;15.25;9.85;;;;;;;17.67;72.07;100983.93;3694735;78;98741;-86
2022/10/10 09:52:12;;;;;;;17.33;9.80;;;;;;;18.11;70.23;100990.85;3755817;77;26443;-86
2022/10/10 09:57:15;;;;;;;15.00;8.70;;;;;;;18.26;67.50;100971.36;3738900;77;98373;-86
2022/10/10 10:02:25;;;;;;;19.62;8.60;;;;;;;18.62;68.16;100974.53;3756470;77;25907;-87
2022/10/10 10:07:31;;;;;;;15.58;8.43;;;;;;;19.14;66.99;100966.80;3720139;78;98767;-88
2022/10/10 10:12:43;;;;;;;15.70;8.73;;;;;;;19.27;65.04;100961.46;3737949;78;25772;-87
2022/10/10 10:17:44;;;;;;;14.40;8.70;;;;;;;19.45;64.25;100948.80;3743918;78;98427;-88
2022/10/10 10:22:46;;;;;;;15.17;7.93;;;;;;;19.58;62.77;100941.41;3762016;77;25808;-88
2022/10/10 10:27:47;;;;;;;13.75;7.42;;;;;;;19.40;61.11;100937.34;3740358;77;98570;-87
2022/10/10 10:32:59;;;;;;;12.60;6.87;;;;;;;19.29;60.76;100932.55;3748210;77;26327;-87
2022/10/10 10:38:32;;;;;;;15.78;7.30;;;;;;;19.42;60.39;100930.12;3708476;77;98592;-87
2022/10/10 10:44:10;;;;;;;20.65;7.25;;;;;;;19.34;59.67;100921.67;3680006;79;26508;-86
2022/10/10 10:49:36;;;;;;;14.60;7.20;;;;;;;19.35;59.76;100913.47;3672633;79;26411;-86
2022/10/10 10:54:59;;;;;;;15.55;7.25;;;;;;;19.73;59.46;100903.62;3690314;79;99000;-87
2022/10/10 11:00:18;;;;;;;13.65;6.83;;;;;;;20.00;59.18;100897.93;3701630;79;26201;-87
2022/10/10 11:05:38;;;;;;;14.35;6.17;;;;;;;20.07;58.65;100895.02;3754656;77;99041;-86
2022/10/10 11:11:06;;;;;;;15.23;6.67;;;;;;;20.07;58.31;100895.02;3740066;77;25819;-85
2022/10/10 11:16:29;;;;;;;12.03;6.72;;;;;;;19.93;57.37;100886.88;3756576;77;99410;-86
2022/10/10 11:21:33;;;;;;;13.15;7.50;;;;;;;19.93;57.33;100879.29;3752508;77;26115;-87
2022/10/10 11:26:39;;;;;;;12.53;6.20;;;;;;;19.87;57.19;100863.45;3721132;77;98988;-87
2022/10/10 11:31:44;;;;;;;14.10;7.47;;;;;;;19.78;57.56;100862.62;3725801;77;26348;-86
2022/10/10 11:36:47;;;;;;;11.90;6.75;;;;;;;19.50;57.14;100852.62;3729335;76;99002;-85
2022/10/10 11:42:05;;;;;;;12.58;6.15;;;;;;;19.37;58.02;100842.67;3829945;75;26266;-87
2022/10/10 11:47:51;;;;;;;13.53;5.62;;;;;;;19.21;56.61;100838.94;3781889;75;98753;-87
2022/10/10 11:53:01;;;;;;;13.80;5.90;;;;;;;19.02;57.49;100832.09;3757872;77;25879;-86
2022/10/10 11:58:11;;;;;;;13.72;6.28;;;;;;;18.77;57.96;100827.53;3791389;77;98463;-86
2022/10/10 12:03:12;;;;;;;10.35;5.35;;;;;;;18.65;57.19;100817.58;3821257;76;26522;-86
2022/10/10 12:08:36;;;;;;;10.90;5.65;;;;;;;18.46;57.40;100799.53;3793665;75;98612;-85
2022/10/10 12:13:44;;;;;;;13.90;5.58;;;;;;;18.33;57.60;100798.55;3808544;77;26563;-86
2022/10/10 12:18:53;;;;;;;15.65;5.75;;;;;;;18.27;58.45;100794.62;3813702;75;26181;-85
2022/10/10 12:24:11;;;;;;;11.10;5.60;;;;;;;18.30;58.89;100797.15;3798100;76;98987;-85
2022/10/10 12:29:11;;;;;;;14.68;5.70;;;;;;;18.30;58.89;100788.20;3764383;76;26158;-84
2022/10/10 12:34:18;;;;;;;15.50;6.12;;;;;;;18.29;59.00;100775.48;3778680;76;98759;-84
2022/10/10 12:39:22;;;;;;;;;;;;;;;18.29;59.17;100780.25;3796168;76;25790;-84
2022/10/10 12:44:43;;;;;;;11.30;5.60;;;;;;;18.22;58.74;100776.19;3805653;77;84677;-85
2022/10/10 12:49:59;;;;;;;11.05;5.40;;;;;;;18.12;59.31;100772.34;3810600;76;26579;-85
2022/10/10 12:55:10;;;;;;;10.13;5.30;;;;;;;17.97;59.86;100764.59;3742768;77;98993;-86
2022/10/10 13:00:23;;;;;;;11.73;6.12;;;;;;;17.97;59.66;100759.02;3722625;77;25837;-84
2022/10/10 13:05:32;;;;;;;13.08;6.12;;;;;;;17.86;59.73;100755.00;3751355;77;98996;-84
2022/10/10 13:10:33;;;;;;;19.40;7.75;;;;;;;17.82;60.14;100750.07;3795618;76;26273;-83
2022/10/10 13:15:36;;;;;;;14.83;7.33;;;;;;;17.73;60.42;100737.88;3745981;77;99035;-83
2022/10/10 13:20:39;;;;;;;16.27;7.12;;;;;;;17.74;60.81;100722.16;3701657;80;26374;-84
2022/10/10 13:25:44;;;;;;;15.30;6.37;;;;;;;17.73;61.11;100719.78;3731806;76;98914;-85
2022/10/10 13:30:46;;;;;;;13.98;6.75;;;;;;;17.60;60.74;100715.98;3781870;76;26526;-84
2022/10/10 13:35:49;;;;;;;10.55;6.17;;;;;;;17.58;61.78;100709.44;3757661;78;99032;-83
2022/10/10 13:40:51;;;;;;;12.50;6.62;;;;;;;17.60;62.21;100703.46;3773342;78;26430;-83
2022/10/10 13:46:03;;;;;;;13.80;6.10;;;;;;;17.58;62.36;100698.89;3787208;76;99028;-84
2022/10/10 13:51:11;;;;;;;14.63;6.05;;;;;;;17.58;62.60;100705.27;3821117;76;25820;-84
2022/10/10 13:56:32;;;;;;;15.68;7.83;;;;;;;17.60;62.67;100693.72;3797935;76;98945;-84
2022/10/10 14:01:46;;;;;;;13.38;6.53;;;;;;;17.53;62.57;100689.62;3818944;76;26301;-85
2022/10/10 14:07:02;;;;;;;16.95;6.78;;;;;;;17.54;63.05;100681.48;3794778;76;98723;-83
2022/10/10 14:12:07;;;;;;;13.70;6.70;;;;;;;17.55;63.28;100683.81;3823010;76;25769;-83
2022/10/10 14:17:10;;;;;;;13.80;6.90;;;;;;;17.56;63.24;100672.09;3804006;76;98612;-85
2022/10/10 14:22:11;;;;;;;15.30;6.45;;;;;;;17.53;63.35;100670.14;3814194;76;25986;-84
2022/10/10 14:27:22;;;;;;;10.87;6.17;;;;;;;17.46;63.42;100666.86;3802044;76;98467;-84
2022/10/10 14:32:26;;;;;;;11.28;6.37;;;;;;;17.41;63.77;100661.76;3829320;76;25880;-85
2022/10/10 14:37:28;;;;;;;14.80;8.28;;;;;;;17.35;63.93;100657.03;3810082;75;98497;-85
2022/10/10 14:42:29;;;;;;;12.05;7.50;;;;;;;17.32;64.11;100652.29;3819646;76;26197;-85
2022/10/10 14:47:30;;;;;;;14.60;7.37;;;;;;;17.26;64.39;100644.22;3806701;76;98797;-84
2022/10/10 14:52:30;;;;;;;11.53;7.23;;;;;;;17.22;64.51;100639.33;3801467;76;26380;-84
2022/10/10 14:57:31;;;;;;;17.17;7.37;;;;;;;17.17;64.70;100630.82;3814912;76;98583;-84
2022/10/10 15:02:32;;;;;;;18.83;7.90;;;;;;;17.09;64.90;100632.12;3803001;76;32863;-84
2022/10/10 15:07:33;;;;;;;16.67;7.87;;;;;;;17.04;65.16;100633.97;3822485;76;98723;-84
2022/10/10 15:12:38;;;;;;;13.17;7.30;;;;;;;17.00;65.39;100629.67;3820190;76;32947;-84
2022/10/10 15:17:40;;;;;;;14.37;7.50;;;;;;;17.01;65.58;100627.06;3821326;76;98908;-84
2022/10/10 15:22:42;;;;;;;16.12;8.43;;;;;;;16.99;65.89;100621.11;3823306;76;26370;-85
2022/10/10 15:27:43;;;;;;;12.43;7.45;;;;;;;16.93;66.09;100620.80;3826852;76;99053;-84
2022/10/10 15:32:44;;;;;;;19.80;9.00;;;;;;;16.90;66.35;100609.72;3828409;76;26237;-83
2022/10/10 15:37:46;;;;;;;14.27;7.93;;;;;;;16.85;66.40;100604.00;3812294;76;99004;-84
2022/10/10 15:42:48;;;;;;;15.00;7.87;;;;;;;16.80;66.66;100608.65;3820105;76;26300;-84
2022/10/10 15:47:49;;;;;;;18.73;10.40;;;;;;;16.72;66.84;100601.58;3822015;76;98792;-84
2022/10/10 15:52:50;;;;;;;19.40;8.77;;;;;;;16.64;67.04;100603.45;3832120;76;25872;-84
2022/10/10 15:57:50;;;;;;;18.57;8.67;;;;;;;16.55;67.31;100597.00;3847113;76;99085;-84
2022/10/10 16:02:51;;;;;;;16.50;9.80;;;;;;;16.45;67.52;100588.17;3864092;76;32959;-84
2022/10/10 16:07:52;;;;;;;18.57;8.93;;;;;;;16.35;67.75;100595.97;3848626;76;98756;-85
2022/10/10 16:12:53;;;;;;;18.20;9.43;;;;;;;16.22;68.09;100589.95;3853751;76;32968;-84
2022/10/10 16:17:54;;;;;;;18.47;9.07;;;;;;;16.11;68.52;100590.65;3848983;75;98539;-84
2022/10/10 16:22:55;;;;;;;14.90;7.97;;;;;;;16.00;68.81;100591.34;3852793;76;32985;-85
2022/10/10 16:27:56;;;;;;;20.15;10.38;;;;;;;15.87;69.15;100594.43;3851416;76;99031;-86
2022/10/10 16:32:58;;;;;;;16.70;9.50;;;;;;;15.76;69.54;100598.66;3859126;75;25919;-85
2022/10/10 16:37:59;;;;;;;15.87;9.00;;;;;;;15.68;69.78;100602.69;3847599;76;99251;-86
2022/10/10 16:43:00;;;;;;;18.60;9.30;;;;;;;15.60;70.16;100594.82;3845780;76;26074;-84
2022/10/10 16:48:00;;;;;;;15.57;10.07;;;;;;;15.51;70.48;100594.47;3841656;76;98827;-86
2022/10/10 16:53:01;;;;;;;28.10;16.70;;;;;;;15.43;70.73;100595.73;3851608;76;31648;-86
2022/10/10 16:58:02;;;;;;;17.57;10.73;;;;;;;15.31;70.96;100595.55;3837860;76;99275;-85
2022/10/10 17:03:04;;;;;;;18.07;10.93;;;;;;;15.22;71.17;100600.77;3849509;76;31631;-86
2022/10/10 17:08:04;;;;;;;18.90;10.20;;;;;;;15.10;71.47;100593.50;3847498;76;98626;-86
2022/10/10 17:13:05;;;;;;;20.07;10.30;;;;;;;15.00;71.79;100595.09;3855857;76;31541;-85
2022/10/10 17:18:06;;;;;;;22.10;11.03;;;;;;;14.90;72.13;100593.19;3839376;76;98954;-86
2022/10/10 17:23:07;;;;;;;22.93;12.43;;;;;;;14.82;72.47;100590.84;3855102;76;31654;-86
2022/10/10 17:28:08;;;;;;;20.50;12.07;;;;;;;14.75;72.71;100583.92;3842376;75;98743;-85
2022/10/10 17:33:10;;;;;;;19.47;12.03;;;;;;;14.68;73.08;100581.98;3847538;76;26195;-87
2022/10/10 17:38:10;;;;;;;20.80;12.50;;;;;;;14.62;73.56;100586.94;3841008;76;98813;-86
2022/10/10 17:43:12;;;;;;;20.67;12.43;;;;;;;14.56;73.88;100588.55;3847722;74;25930;-86
2022/10/10 17:48:13;;;;;;;21.33;12.57;;;;;;;14.50;74.25;100575.69;3855546;75;99034;-86
2022/10/10 17:53:13;;;;;;;23.17;13.57;;;;;;;14.46;74.41;100576.31;3869127;75;26508;-86
2022/10/10 17:58:14;;;;;;;24.10;13.33;;;;;;;14.43;74.75;100581.83;3866532;76;98529;-86
2022/10/10 18:03:15;;;;;;;25.00;15.03;;;;;;;14.40;75.09;100570.18;3878634;75;25982;-86
2022/10/10 18:08:16;;;;;;;26.43;15.03;;;;;;;14.35;75.36;100576.13;3853558;76;98838;-87
2022/10/10 18:13:17;;;;;;;27.77;15.97;;;;;;;14.31;75.57;100577.52;3866943;76;34814;-86
2022/10/10 18:18:18;;;;;;;32.33;18.07;;;;;;;14.27;75.99;100575.34;3856276;75;99033;-86
2022/10/10 18:23:19;;;;;;;30.88;17.15;;;;;;;14.23;76.22;100571.78;3858794;75;34797;-86
2022/10/10 18:28:20;;;;;;;30.23;17.45;;;;;;;14.16;76.39;100575.11;3845563;76;99012;-86
2022/10/10 18:33:21;;;;;;;28.33;17.73;;;;;;;14.16;76.39;100575.11;3856918;76;31230;-86
2022/10/10 18:38:22;;;;;;;25.73;16.17;;;;;;;14.12;76.92;100572.97;3842905;76;98693;-84
2022/10/10 18:43:24;;;;;;;26.83;17.43;;;;;;;14.06;77.27;100577.33;3862324;76;26762;-86
2022/10/10 18:48:24;;;;;;;30.83;18.10;;;;;;;14.01;77.51;100574.34;3858622;76;98885;-86
2022/10/10 18:53:25;;;;;;;33.10;18.83;;;;;;;13.94;77.83;100571.59;3871343;76;32468;-86
2022/10/10 18:58:27;;;;;;;26.90;18.20;;;;;;;13.89;77.98;100569.83;3860058;75;99261;-85
2022/10/10 19:03:28;;;;;;;31.67;19.63;;;;;;;13.83;78.12;100567.23;3857955;76;26140;-84
2022/10/10 19:08:30;;;;;;;32.30;20.50;;;;;;;13.74;78.65;100580.07;3848484;75;99041;-85
2022/10/10 19:13:32;;;;;;;35.60;21.73;;;;;;;13.68;79.43;100587.80;3866129;75;99180;-85
2022/10/10 19:18:33;;;;;;;39.37;23.60;;;;;;;13.62;79.79;100578.31;3866669;76;29110;-85
2022/10/10 19:23:35;;;;;;;38.03;23.07;;;;;;;13.56;80.32;100579.85;3847984;75;99194;-85
2022/10/10 19:28:37;;;;;;;36.30;23.00;;;;;;;13.50;80.82;100582.23;3864432;76;28077;-86
2022/10/10 19:33:40;;;;;;;37.23;23.27;;;;;;;13.46;81.05;100580.65;3847769;75;99229;-85
2022/10/10 19:38:41;;;;;;;41.10;25.02;;;;;;;13.40;81.41;100578.84;3778477;77;35324;-86
2022/10/10 19:43:47;;;;;;;38.25;24.85;;;;;;;13.36;81.94;100572.52;3791578;75;99028;-86
2022/10/10 19:48:49;;;;;;;37.83;22.93;;;;;;;13.24;82.29;100570.13;3783497;76;25790;-86
2022/10/10 19:53:50;;;;;;;38.80;25.48;;;;;;;13.26;82.58;100580.80;3799519;76;99106;-86
2022/10/10 19:58:57;;;;;;;38.77;23.73;;;;;;;13.24;82.91;100581.18;3813103;76;31040;-86
2022/10/10 20:03:58;;;;;;;37.63;25.80;;;;;;;13.18;82.85;100582.74;3800020;76;99119;-85
2022/10/10 20:08:59;;;;;;;39.43;24.90;;;;;;;13.13;82.96;100587.27;3804783;76;33482;-84
2022/10/10 20:14:00;;;;;;;33.77;20.97;;;;;;;13.08;82.67;100597.31;3803965;75;99087;-85
2022/10/10 20:19:01;;;;;;;31.40;22.23;;;;;;;13.02;82.73;100591.96;3807292;76;26088;-85
2022/10/10 20:24:07;;;;;;;36.87;22.73;;;;;;;12.96;82.89;100597.67;3793267;76;99218;-85
2022/10/10 20:29:08;;;;;;;31.73;20.62;;;;;;;12.87;83.12;100597.19;3790254;77;25960;-85
2022/10/10 20:34:09;;;;;;;32.47;22.17;;;;;;;12.81;83.23;100601.51;3807305;75;99081;-85
2022/10/10 20:39:12;;;;;;;34.07;21.50;;;;;;;12.73;83.31;100603.24;3841574;75;28157;-85
2022/10/10 20:44:14;;;;;;;34.33;20.02;;;;;;;12.65;83.33;100606.55;3868532;75;98946;-85
2022/10/10 20:49:21;;;;;;;33.28;21.02;;;;;;;12.56;83.68;100605.32;3872737;75;34802;-85
2022/10/10 20:54:23;;;;;;;33.30;19.60;;;;;;;12.46;83.86;100601.33;3811417;75;99181;-86
2022/10/10 20:59:24;;;;;;;29.92;20.68;;;;;;;12.38;84.11;100605.81;3763465;77;34808;-86
2022/10/10 21:04:25;;;;;;;31.60;19.50;;;;;;;12.28;84.21;100609.28;3778180;75;99178;-84
2022/10/10 21:09:25;;;;;;;30.80;19.33;;;;;;;12.18;84.38;100610.80;3824161;75;27644;-86
2022/10/10 21:14:26;;;;;;;32.57;19.97;;;;;;;12.08;84.40;100618.98;3802273;75;99110;-85
2022/10/10 21:19:27;;;;;;;33.57;19.40;;;;;;;11.98;84.99;100616.34;3819543;75;26376;-85
2022/10/10 21:24:28;;;;;;;29.87;19.00;;;;;;;11.88;85.33;100610.75;3789537;77;98851;-86
2022/10/10 21:29:29;;;;;;;25.97;15.43;;;;;;;11.80;85.40;100618.74;3768612;77;32498;-84
2022/10/10 21:34:30;;;;;;;27.52;15.95;;;;;;;11.73;85.82;100611.19;3743478;77;99038;-85
2022/10/10 21:39:31;;;;;;;25.17;14.73;;;;;;;11.67;86.25;100620.20;3716543;77;27448;-85
2022/10/10 21:44:32;;;;;;;19.95;12.07;;;;;;;11.63;86.58;100609.72;3726409;76;98759;-85
2022/10/10 21:49:33;;;;;;;20.97;13.90;;;;;;;11.59;86.71;100609.69;3765455;77;28665;-85
2022/10/10 21:54:34;;;;;;;22.42;13.68;;;;;;;11.54;86.95;100614.14;3780902;76;98977;-85
2022/10/10 21:59:35;;;;;;;24.70;14.43;;;;;;;11.50;87.15;100622.95;3754047;77;25826;-85
2022/10/10 22:04:35;;;;;;;24.90;14.37;;;;;;;11.46;86.92;100625.47;3748920;76;99066;-86
2022/10/10 22:09:36;;;;;;;25.37;14.57;;;;;;;11.40;86.97;100636.63;3766390;77;26123;-86
2022/10/10 22:14:37;;;;;;;27.20;14.43;;;;;;;11.32;87.26;100633.00;3774177;76;98840;-86
2022/10/10 22:19:38;;;;;;;28.92;16.48;;;;;;;11.26;87.43;100640.02;3795607;76;26328;-86
2022/10/10 22:24:39;;;;;;;28.43;16.13;;;;;;;11.20;87.59;100636.59;3804455;76;99325;-85
2022/10/10 22:29:39;;;;;;;43.27;24.20;;;;;;;11.14;87.79;100640.27;3815091;76;33919;-85
2022/10/10 22:34:40;;;;;;;38.77;21.73;;;;;;;11.09;87.99;100637.05;3810054;76;99172;-86
2022/10/10 22:39:41;;;;;;;39.63;21.23;;;;;;;11.04;88.07;100643.69;3814392;76;33014;-86
2022/10/10 22:44:42;;;;;;;42.98;22.87;;;;;;;11.00;88.00;100644.22;3800127;76;99013;-86
2022/10/10 22:49:43;;;;;;;39.57;20.67;;;;;;;10.90;87.91;100643.49;3817994;76;32910;-85
2022/10/10 22:54:44;;;;;;;32.57;19.50;;;;;;;10.84;88.15;100644.98;3805929;76;99045;-85
2022/10/10 22:59:45;;;;;;;66.77;30.93;;;;;;;10.78;88.27;100647.05;3820702;76;32974;-86
2022/10/10 23:04:46;;;;;;;46.07;25.50;;;;;;;10.67;88.09;100652.42;3808314;76;99080;-85
2022/10/10 23:09:47;;;;;;;61.68;30.88;;;;;;;10.57;88.28;100646.18;3811391;77;34062;-86
2022/10/10 23:14:48;;;;;;;45.90;24.85;;;;;;;10.48;88.87;100647.63;3787407;76;98999;-85